KCKV/CKV METAR and TAF weather

Enter ICAO airport designator
Station Type Date Time Source
KCKV METAR 2021/05/12 03:52 UTC NOAA

KCKV 120352Z AUTO 04012G19KT 10SM OVC080 15/06 A3021 RMK AO2 SLP227 T01500061


Station Type Date Time Source
KCKV Decoded METAR 2021/05/12 03:52 UTC NOAA

CLARKSVILLE OUTLAW FIELD, TN, United States (KCKV) 36-37N 87-25W 165M
May 11, 2021 - 11:52 PM EDT / 2021.05.12 0352 UTC
Wind: from the NE (040 degrees) at 14 MPH (12 KT) gusting to 22 MPH (19 KT):0
Visibility: 10 mile(s):0
Sky conditions: overcast
Temperature: 59.0 F (15.0 C)
Dew Point: 43.0 F (6.1 C)
Relative Humidity: 55%
Pressure (altimeter): 30.21 in. Hg (1023 hPa)
ob: KCKV 120352Z AUTO 04012G19KT 10SM OVC080 15/06 A3021 RMK AO2 SLP227 T01500061
cycle: 4

Station Type Date Time Source
KCKV TAF 2021/05/11 18:30 UTC NOAA

TAF KCKV 111728Z 1118/1218 05010KT P6SM SKC
FM120200 03010KT P6SM BKN100
FM120500 04010KT P6SM OVC050
FM121300 04011KT P6SM BKN050
FM121500 05012KT P6SM SCT050
FM121700 05015G25KT P6SM SKC

Example: see airport list